Main page
METAR-TAF:

METAR-TAF

Airports :

Brenham Municipal Airport

Brenham, Texas, United States

latitude: 30-13-08N, longitude: 096-22-27W, elevation: 308 ft

Current weather observation

The report was made 7 minutes ago, at 09:55 UTC
Calm wind
Temperature 79°F
Humidity 94%
Pressure 29.94 in. Hg
Visibility: 10 miles
Clear sky

METAR: K11R 250955Z AUTO 00000KT 10SM CLR 26/25 A2994 RMK AO2 T02550245

Time: 05:02 (10:02 UTC)


TAF: missing

Weather observations and forecasts of more than 4000 airports (METAR and TAF reports).

The available stations are represented by yellow and red dots on the map.

Hover mouse over dot to see the name of the station.

Then click to see weather observations and forecasts.

To change the map : click on the green buttons with a black cross to zoom in, on the green button with a dash to zoom out, or on the green arrows for adjacent maps.


METAR-TAF: